Fargo, ND (58108)

12:56 PM CST on February 10, 2016 (GMT -0600)
NDDOT | | Change Station
CLOSE
Current Station
Personal Weather Station
Location: Fargo, ND
Elevation: 870 ft
Nearby Weather Stations

Elev 870 ft 46.85 °N, 96.78 °W | Updated 187 days ago

Snow
Snow
15 °F
Feels Like 7 °F
N
6
Wind Variable Wind from NE
Gusts mph

Today
High -- | Low -- °F
--% Chance of Precip.
Yesterday
High -- | Low -- °F
Precip. -- in
Pressure 30.19 in
Visibility 10.0 miles
Clouds Mostly Cloudy 4700 ft
Overcast 6000 ft
Windchill 7 °F
Dew Point 4 °F
Humidity 63%
Rainfall in
Snow Depth Not available.
7:39 AM 5:43 PM
Waxing Crescent, 6% visible
METAR KFAR 101853Z 00000KT 10SM BKN047 OVC060 M11/M16 A3012 RMK AO2 SLP221 T11061161
Pressure 30.19 in
Visibility 10.0 miles
Clouds Mostly Cloudy 4700 ft
Overcast 6000 ft
Windchill 7 °F
Dew Point 4 °F
Humidity 63%
Rainfall in
Snow Depth Not available.
7:39 AM 5:43 PM
Waxing Crescent, 6% visible
METAR KFAR 101853Z 00000KT 10SM BKN047 OVC060 M11/M16 A3012 RMK AO2 SLP221 T11061161

10-Day Weather Forecast

Almanac

Astronomy

Feb. 10, 2016 Rise Set
Actual Time
Civil Twilight
Nautical Twilight
Astronomical Twilight
Moon
Length of Visible Light
Length of Day
Tomorrow will be .
, % of the Moon is Illuminated

Today's Extremes

State Highs State Lows

Community

WunderPhotos

Upload Photos

1,891,915 photos uploaded!

WunderBlog® & News

Nearby

Air Quality

  Air Quality AQ Index Pollutant
Not available.

Snow Depth

Station Depth Elevation

Earthquake Activity

City Distance Mag. Time & Date
Minimum magnitude displayed is 2.5.

Coastal Water Temperatures

Place Temperature

Stations

Nearby Weather Stations

Station Location Temp. Windchill Dew Point Humidity Wind Precip. Elev Updated Type
                   

Watches & Warnings

There are currently no watches in effect.